Time;durP1;ratioP1;P1;durP2;ratioP2;P2;SDS_P1;SDS_P2;PMS_P1;PMS_P2;Temp;Humidity;BMP_temperature;BMP_pressure;BME280_temperature;BME280_humidity;BME280_pressure;Samples;Min_cycle;Max_cycle;Signal;HPM_P1;HPM_P2
2021/08/23 00:01:46;;;;;;;0.30;0.20;;;15.20;99.90;;;14.10;100.00;98235.78;6162188;23;20447;-78
2021/08/23 00:04:33;;;;;;;0.30;0.20;;;15.10;99.90;;;13.87;100.00;98194.75;6160571;23;20392;-78
2021/08/23 00:07:22;;;;;;;0.70;0.70;;;15.10;99.90;;;14.06;100.00;98242.75;6153438;23;20398;-78
2021/08/23 00:10:11;;;;;;;0.30;0.20;;;15.10;99.90;;;14.01;100.00;98244.28;6152570;23;20392;-78
2021/08/23 00:12:58;;;;;;;0.30;0.20;;;15.00;99.90;;;13.95;100.00;98241.66;6152694;23;20396;-78
2021/08/23 00:15:47;;;;;;;0.30;0.20;;;14.90;99.90;;;13.93;100.00;98254.66;6154721;23;20412;-78
2021/08/23 00:18:38;;;;;;;0.30;0.20;;;14.90;99.90;;;13.90;100.00;98244.28;6151217;23;20397;-78
2021/08/23 00:21:27;;;;;;;0.30;0.20;;;14.80;99.90;;;13.96;100.00;98238.75;6153857;23;20456;-78
2021/08/23 00:24:23;;;;;;;0.30;0.20;;;14.90;99.90;;;14.07;100.00;98241.69;6153899;23;20400;-78
2021/08/23 00:27:11;;;;;;;0.30;0.20;;;15.00;99.90;;;14.06;100.00;98240.88;6159014;23;20405;-78
2021/08/23 00:29:58;;;;;;;0.30;0.20;;;15.00;99.90;;;14.04;100.00;98245.72;6162079;23;20425;-78
2021/08/23 00:32:45;;;;;;;0.30;0.20;;;15.00;99.90;;;14.04;100.00;98245.72;6156092;23;20403;-77
2021/08/23 00:35:33;;;;;;;0.57;0.57;;;15.00;99.90;;;14.11;100.00;98235.56;6152717;23;20932;-78
2021/08/23 00:38:20;;;;;;;0.40;0.30;;;15.10;99.90;;;14.11;100.00;98248.34;6153749;23;21036;-77
2021/08/23 00:41:09;;;;;;;0.30;0.20;;;15.10;99.90;;;14.02;100.00;98236.94;6150595;23;20804;-77
2021/08/23 00:43:56;;;;;;;0.30;0.20;;;15.00;99.90;;;13.99;100.00;98230.13;6152527;23;20401;-77
2021/08/23 00:46:44;;;;;;;0.30;0.20;;;15.00;99.90;;;14.13;100.00;98252.47;6152016;23;20392;-78
2021/08/23 00:49:31;;;;;;;0.30;0.20;;;15.10;99.90;;;14.02;100.00;98232.38;6149250;23;20531;-77
2021/08/23 00:52:19;;;;;;;0.30;0.20;;;15.10;99.90;;;14.13;100.00;98259.81;6152349;23;20396;-78
2021/08/23 00:55:07;;;;;;;0.30;0.20;;;15.10;99.90;;;14.01;100.00;98248.88;6153681;23;20451;-77
2021/08/23 00:57:56;;;;;;;0.30;0.20;;;15.10;99.90;;;14.03;100.00;98255.75;6152408;23;20409;-77
2021/08/23 01:00:48;;;;;;;0.30;0.20;;;15.00;99.90;;;14.03;100.00;98254.94;6151422;23;20392;-77
2021/08/23 01:03:43;;;;;;;0.30;0.20;;;15.00;99.90;;;13.91;100.00;98248.63;6152439;23;20412;-77
2021/08/23 01:06:32;;;;;;;1.30;1.30;;;14.90;99.90;;;14.13;100.00;98268.75;6154280;23;20397;-77
2021/08/23 01:09:21;;;;;;;0.30;0.20;;;15.00;99.90;;;14.03;100.00;98257.66;6151466;23;20428;-77
2021/08/23 01:12:10;;;;;;;0.30;0.20;;;15.00;99.90;;;14.05;100.00;98265.56;6155408;23;20403;-77
2021/08/23 01:14:59;;;;;;;0.30;0.20;;;15.00;99.90;;;14.02;100.00;98261.41;6154241;23;20410;-78
2021/08/23 01:17:46;;;;;;;0.30;0.20;;;15.00;99.90;;;14.00;100.00;98258.09;6154001;23;20531;-78
2021/08/23 01:20:35;;;;;;;0.30;0.20;;;15.00;99.90;;;13.96;100.00;98256.91;6153780;23;20402;-78
2021/08/23 01:23:24;;;;;;;0.30;0.20;;;14.90;99.90;;;14.06;100.00;98253.63;6156222;23;20392;-77
2021/08/23 01:26:12;;;;;;;0.30;0.20;;;15.00;99.90;;;13.98;100.00;98262.94;6154603;23;20392;-77
2021/08/23 01:29:04;;;;;;;0.30;0.20;;;15.00;99.90;;;13.95;100.00;98257.97;6164991;23;20420;-78
2021/08/23 01:32:10;;;;;;;0.30;0.20;;;14.90;99.90;;;13.97;100.00;98264.00;6157242;23;21063;-78
2021/08/23 01:34:59;;;;;;;0.30;0.20;;;14.90;99.90;;;13.98;100.00;98254.78;6160270;23;20392;-77
2021/08/23 01:37:47;;;;;;;0.30;0.20;;;15.00;99.90;;;13.97;100.00;98264.00;6166550;23;20488;-78
2021/08/23 01:40:35;;;;;;;0.30;0.20;;;15.00;99.90;;;14.12;100.00;98269.81;6162609;23;20606;-78
2021/08/23 01:43:23;;;;;;;0.30;0.20;;;15.00;99.90;;;14.07;99.78;98255.28;6169502;23;20475;-77
2021/08/23 01:46:10;;;;;;;0.30;0.20;;;15.10;99.90;;;14.10;99.40;98258.38;6155287;23;20397;-77
2021/08/23 01:49:02;;;;;;;0.30;0.20;;;15.10;99.90;;;14.02;99.16;98251.38;6155524;23;20424;-77
2021/08/23 01:51:49;;;;;;;0.30;0.20;;;15.10;99.90;;;14.07;99.75;98267.00;6157823;23;20474;-77
2021/08/23 01:54:36;;;;;;;0.40;0.30;;;15.00;99.90;;;14.07;98.94;98263.44;6158871;23;20876;-77
2021/08/23 01:57:24;;;;;;;0.30;0.20;;;15.00;99.90;;;13.97;99.59;98262.13;6160857;23;20478;-78
2021/08/23 02:00:13;;;;;;;0.30;0.20;;;15.00;99.90;;;14.04;99.62;98259.31;6178673;23;20424;-77
2021/08/23 02:03:01;;;;;;;0.30;0.20;;;15.00;99.90;;;13.99;99.46;98251.84;6180924;23;20459;-78
2021/08/23 02:05:49;;;;;;;0.30;0.20;;;15.00;99.90;;;14.13;99.30;98266.03;6179747;23;20404;-78
2021/08/23 02:08:36;;;;;;;1.80;1.70;;;15.10;99.90;;;14.07;99.50;98258.00;6175406;23;20499;-78
2021/08/23 02:11:24;;;;;;;0.40;0.20;;;15.10;99.90;;;14.21;98.73;98261.34;6176142;23;20495;-78
2021/08/23 02:14:11;;;;;;;0.30;0.20;;;15.10;99.90;;;14.22;98.56;98254.84;6154637;23;20419;-77
2021/08/23 02:16:59;;;;;;;0.30;0.20;;;15.20;99.90;;;14.17;98.47;98261.78;6157464;23;20392;-77
2021/08/23 02:19:46;;;;;;;0.30;0.20;;;15.10;99.90;;;14.22;98.72;98260.28;6153217;23;20403;-77
2021/08/23 02:22:35;;;;;;;0.30;0.20;;;15.10;99.90;;;14.16;97.88;98257.41;6152768;23;20396;-77
2021/08/23 02:25:23;;;;;;;0.30;0.20;;;15.10;99.20;;;14.19;97.65;98249.91;6153971;23;20411;-77
2021/08/23 02:28:10;;;;;;;0.30;0.20;;;15.20;99.50;;;14.16;97.68;98252.00;6161424;23;20853;-77
2021/08/23 02:30:57;;;;;;;0.30;0.20;;;15.10;99.00;;;14.07;98.28;98247.97;6154432;23;20499;-78
2021/08/23 02:33:45;;;;;;;0.30;0.20;;;15.10;99.60;;;13.96;97.85;98236.03;6163890;23;20431;-77
2021/08/23 02:36:34;;;;;;;0.30;0.20;;;15.10;99.80;;;14.02;98.16;98236.94;6153530;23;20499;-77
2021/08/23 02:39:22;;;;;;;0.30;0.20;;;15.10;99.90;;;14.11;98.15;98251.88;6153795;23;20400;-77
2021/08/23 02:42:10;;;;;;;0.30;0.20;;;15.10;99.90;;;14.08;98.67;98254.22;6152540;23;20396;-77
2021/08/23 02:44:57;;;;;;;0.40;0.33;;;15.10;99.90;;;14.08;98.53;98252.34;6152368;23;20491;-77
2021/08/23 02:47:44;;;;;;;0.30;0.20;;;15.10;99.90;;;14.14;99.21;98264.16;6152926;23;20396;-77
2021/08/23 02:50:32;;;;;;;0.30;0.20;;;15.10;99.90;;;14.17;98.23;98253.66;6159026;23;20396;-78
2021/08/23 02:53:19;;;;;;;0.30;0.10;;;15.10;99.90;;;14.14;97.78;98245.97;6160524;23;20400;-76
2021/08/23 02:56:08;;;;;;;0.30;0.20;;;15.10;99.60;;;14.06;98.12;98240.88;6155268;23;20401;-76
2021/08/23 02:58:55;;;;;;;0.70;0.70;;;15.10;99.90;;;14.08;98.48;98235.19;6151831;23;20404;-77
2021/08/23 03:01:43;;;;;;;0.30;0.23;;;15.10;99.90;;;14.09;98.54;98237.69;6153551;23;20869;-77
2021/08/23 03:04:30;;;;;;;0.30;0.20;;;15.10;99.90;;;14.20;98.44;98240.69;6154576;23;20401;-77
2021/08/23 03:07:17;;;;;;;0.30;0.20;;;15.10;99.90;;;14.16;97.99;98241.13;6167004;23;20572;-77
2021/08/23 03:10:06;;;;;;;0.30;0.20;;;15.10;99.50;;;14.09;98.20;98237.69;6163956;23;20479;-77
2021/08/23 03:12:55;;;;;;;0.30;0.20;;;15.10;99.90;;;14.12;98.55;98237.22;6178592;23;20473;-76
2021/08/23 03:15:42;;;;;;;0.30;0.30;;;15.10;99.90;;;14.16;98.07;98243.84;6177434;23;20412;-78
2021/08/23 03:18:29;;;;;;;0.30;0.20;;;15.10;99.80;;;14.22;97.84;98235.84;6173285;23;20404;-78
2021/08/23 03:21:17;;;;;;;0.30;0.20;;;15.10;99.40;;;14.17;97.94;98242.78;6180355;23;20487;-78
2021/08/23 03:24:05;;;;;;;0.30;0.20;;;15.10;99.50;;;14.17;97.79;98234.63;6154911;23;20941;-76
2021/08/23 03:26:52;;;;;;;0.30;0.10;;;15.20;99.70;;;14.20;97.74;98238.78;6154581;23;20411;-77
2021/08/23 03:29:41;;;;;;;0.40;0.30;;;15.20;99.50;;;14.25;97.97;98232.66;6153175;23;20831;-76
2021/08/23 03:32:28;;;;;;;0.30;0.20;;;15.20;99.90;;;14.23;96.70;98237.50;6152116;23;20400;-77
2021/08/23 03:35:15;;;;;;;0.30;0.20;;;15.20;97.90;;;14.09;97.41;98234.97;6161949;23;20400;-77
2021/08/23 03:38:03;;;;;;;4.53;2.20;;;15.10;98.40;;;14.01;98.45;98238.00;6153604;23;20407;-77
2021/08/23 03:40:50;;;;;;;0.30;0.20;;;15.00;99.60;;;14.00;98.57;98231.78;6161980;23;20396;-76
2021/08/23 03:43:37;;;;;;;0.30;0.20;;;15.00;99.90;;;14.07;98.60;98241.69;6154148;23;20944;-79
2021/08/23 03:46:28;;;;;;;0.30;0.20;;;15.00;99.90;;;14.11;98.21;98241.00;6153751;23;20480;-77
2021/08/23 03:49:15;;;;;;;0.30;0.20;;;15.10;99.90;;;13.92;98.45;98212.25;6152277;23;20427;-77
2021/08/23 03:52:03;;;;;;;0.30;0.20;;;15.10;99.90;;;14.10;98.10;98236.63;6152654;23;20979;-77
2021/08/23 03:54:51;;;;;;;0.60;0.60;;;15.10;99.80;;;14.04;98.29;98240.28;6151263;23;20399;-77
2021/08/23 03:57:38;;;;;;;0.30;0.20;;;15.00;99.50;;;14.13;97.89;98240.78;6151218;23;20480;-77
2021/08/23 04:00:26;;;;;;;0.83;0.83;;;15.10;99.90;;;14.02;98.44;98240.50;6152594;23;20415;-77
2021/08/23 04:03:14;;;;;;;10.57;9.47;;;15.00;99.80;;;14.10;98.47;98241.22;6154011;23;20487;-78
2021/08/23 04:06:02;;;;;;;11.50;10.37;;;15.00;99.90;;;14.14;98.02;98245.16;6155302;23;20715;-76
2021/08/23 04:08:50;;;;;;;10.83;9.83;;;15.10;99.80;;;14.03;98.37;98235.91;6156723;23;20500;-76
2021/08/23 04:11:37;;;;;;;10.37;9.47;;;15.10;99.60;;;14.12;98.18;98242.66;6151277;23;20464;-76
2021/08/23 04:14:24;;;;;;;11.13;10.13;;;15.10;99.90;;;14.17;98.11;98248.22;6151754;23;20424;-77
2021/08/23 04:17:12;;;;;;;11.30;10.10;;;15.10;99.90;;;14.28;98.04;98248.47;6153777;23;20885;-77
2021/08/23 04:20:02;;;;;;;13.47;11.20;;;15.20;99.80;;;13.80;97.88;98188.63;6150863;23;20424;-77
2021/08/23 04:22:49;;;;;;;11.77;10.60;;;15.20;99.90;;;14.23;97.66;98249.16;6153566;23;20431;-76
2021/08/23 04:25:36;;;;;;;11.23;10.13;;;15.20;99.20;;;14.16;97.51;98257.41;6152824;23;20407;-77
2021/08/23 04:28:24;;;;;;;11.00;9.90;;;15.20;99.00;;;14.10;98.05;98257.53;6155544;23;20492;-77
2021/08/23 04:31:11;;;;;;;12.33;11.13;;;15.10;98.90;;;14.05;97.46;98243.81;6154053;23;20464;-77
2021/08/23 04:33:59;;;;;;;11.90;10.57;;;15.10;99.00;;;14.07;97.79;98264.28;6153117;23;20401;-77
2021/08/23 04:36:47;;;;;;;13.03;11.63;;;15.10;99.00;;;14.04;98.45;98259.31;6153266;23;21168;-77
2021/08/23 04:39:35;;;;;;;12.30;10.90;;;15.00;99.90;;;14.03;99.03;98263.91;6155862;23;20731;-79
2021/08/23 04:42:24;;;;;;;13.17;11.77;;;15.00;99.90;;;14.05;98.63;98257.41;6155050;23;20401;-80
2021/08/23 04:45:13;;;;;;;13.27;11.80;;;15.00;99.90;;;14.12;98.55;98261.69;6164295;23;20389;-81
2021/08/23 04:48:02;;;;;;;11.63;10.63;;;15.10;99.90;;;14.21;98.53;98264.06;6172327;23;20397;-81
2021/08/23 04:50:49;;;;;;;11.70;10.60;;;15.10;99.90;;;14.29;97.83;98266.44;6175284;23;20419;-80
2021/08/23 04:53:44;;;;;;;12.87;11.67;;;15.30;99.40;;;14.31;97.59;98269.75;6174648;23;20396;-79
2021/08/23 04:56:35;;;;;;;12.13;10.93;;;15.30;99.10;;;14.29;96.89;98261.00;6168018;23;20584;-80
2021/08/23 04:59:23;;;;;;;12.80;11.57;;;15.30;98.10;;;14.22;96.68;98243.97;6172746;23;20463;-80
2021/08/23 05:02:10;;;;;;;11.63;10.63;;;15.40;98.20;;;14.33;96.76;98262.22;6173946;23;20458;-80
2021/08/23 05:04:58;;;;;;;12.00;10.90;;;15.40;97.30;;;14.56;96.57;98266.84;6162446;23;20894;-80
2021/08/23 05:07:46;;;;;;;11.90;10.80;;;15.40;98.10;;;14.34;95.87;98242.13;6160520;23;20396;-81
2021/08/23 05:10:35;;;;;;;11.77;10.50;;;15.50;96.30;;;14.46;95.97;98244.84;6169712;23;20923;-80
2021/08/23 05:13:23;;;;;;;12.60;11.30;;;15.50;97.00;;;14.76;95.37;98267.56;6159291;23;20432;-80
2021/08/23 05:16:11;;;;;;;12.23;11.10;;;15.60;96.80;;;14.75;95.16;98268.63;6159617;23;20416;-79
2021/08/23 05:18:58;;;;;;;14.90;11.10;;;15.70;95.80;;;14.67;95.74;98251.59;6164422;23;20759;-80
2021/08/23 05:21:46;;;;;;;12.63;11.53;;;15.70;96.60;;;14.76;95.02;98265.69;6159443;23;20400;-79
2021/08/23 05:24:34;;;;;;;11.73;10.70;;;15.70;95.70;;;14.94;94.52;98263.91;6160744;23;20415;-80
2021/08/23 05:27:23;;;;;;;12.20;11.00;;;15.80;95.60;;;15.16;93.45;98264.09;6157501;23;20396;-80
2021/08/23 05:30:12;;;;;;;12.50;10.97;;;16.00;94.60;;;15.18;92.40;98259.25;6157782;23;20529;-79
2021/08/23 05:33:00;;;;;;;11.13;10.13;;;16.20;93.30;;;15.05;93.07;98257.63;6157273;23;20392;-80
2021/08/23 05:35:48;;;;;;;12.00;10.90;;;16.10;93.50;;;15.00;94.08;98258.34;6168589;23;20475;-81
2021/08/23 05:38:36;;;;;;;11.47;10.37;;;16.00;94.40;;;14.95;94.04;98263.69;6158771;23;20388;-79
2021/08/23 05:41:23;;;;;;;12.00;10.97;;;16.00;94.50;;;14.72;94.04;98253.63;6172631;23;20477;-80
2021/08/23 05:44:12;;;;;;;13.87;12.23;;;15.80;94.60;;;14.55;95.82;98253.47;6158761;23;20451;-79
2021/08/23 05:46:59;;;;;;;13.40;12.17;;;15.60;96.00;;;14.61;95.40;98263.38;6159885;23;20401;-79
2021/08/23 05:49:48;;;;;;;13.27;11.70;;;15.60;96.30;;;14.47;95.92;98270.13;6157055;23;20758;-79
2021/08/23 05:52:36;;;;;;;12.27;10.97;;;15.50;96.00;;;14.50;96.55;98272.38;6155732;23;20508;-79
2021/08/23 05:55:24;;;;;;;15.17;12.10;;;15.50;96.90;;;14.55;96.71;98269.78;6167899;23;20400;-80
2021/08/23 05:58:12;;;;;;;12.00;10.80;;;15.50;98.00;;;14.71;95.76;98266.38;6166943;23;20400;-82
2021/08/23 06:01:01;;;;;;;12.30;11.10;;;15.60;97.30;;;14.59;95.75;98273.69;6176503;23;20859;-80
2021/08/23 06:03:50;;;;;;;12.67;11.47;;;15.60;96.50;;;14.62;95.50;98269.66;6157803;23;20928;-82
2021/08/23 06:06:39;;;;;;;15.13;12.00;;;15.60;96.30;;;14.51;95.41;98260.44;6187801;23;20479;-80
2021/08/23 06:09:27;;;;;;;13.07;11.87;;;15.60;96.30;;;14.42;95.67;98238.22;6174559;23;20424;-82
2021/08/23 06:12:14;;;;;;;14.90;12.40;;;15.50;96.60;;;14.66;95.90;98260.81;6175857;23;20464;-80
2021/08/23 06:15:04;;;;;;;13.13;11.77;;;15.60;97.40;;;14.72;94.99;98276.19;6169474;23;20439;-80
2021/08/23 06:17:53;;;;;;;11.73;10.80;;;15.60;96.10;;;14.78;94.86;98263.56;6162564;23;20396;-81
2021/08/23 06:20:42;;;;;;;14.63;12.50;;;15.70;95.90;;;14.88;94.63;98268.41;6159672;23;20405;-81
2021/08/23 06:23:30;;;;;;;11.90;10.80;;;15.80;95.50;;;15.17;93.73;98276.66;6172753;23;20393;-80
2021/08/23 06:26:18;;;;;;;12.20;10.83;;;16.00;95.10;;;15.39;93.16;98271.41;6160878;23;20726;-81
2021/08/23 06:29:08;;;;;;;12.00;10.80;;;16.20;94.70;;;15.65;91.57;98263.75;6171101;23;20913;-81
2021/08/23 06:32:02;;;;;;;12.50;11.37;;;16.50;93.50;;;15.71;91.08;98265.47;6174478;23;20397;-81
2021/08/23 06:34:52;;;;;;;12.50;11.30;;;16.60;92.70;;;15.64;89.44;98253.09;6166338;23;20431;-85
2021/08/23 06:37:43;;;;;;;12.03;10.83;;;16.70;91.60;;;15.62;90.01;98258.78;6170307;23;20468;-87
2021/08/23 06:40:31;;;;;;;14.13;12.10;;;16.60;91.60;;;15.62;90.83;98268.84;6177264;23;20455;-85
2021/08/23 06:43:19;;;;;;;12.27;11.10;;;16.60;91.90;;;15.18;91.88;98261.16;6160219;23;20452;-85
2021/08/23 06:46:09;;;;;;;12.40;11.23;;;16.30;92.10;;;15.34;91.79;98254.13;6174674;23;20435;-84
2021/08/23 06:48:57;;;;;;;11.00;9.90;;;16.30;92.80;;;15.26;92.00;98252.59;6172469;23;20419;-83
2021/08/23 06:51:48;;;;;;;13.53;12.10;;;16.30;93.00;;;15.44;92.21;98252.44;6163805;23;20472;-84
2021/08/23 06:54:36;;;;;;;11.80;10.60;;;16.40;93.60;;;15.95;90.71;98264.59;6163865;23;20397;-85
2021/08/23 06:57:23;;;;;;;12.23;11.07;;;16.70;92.90;;;16.14;89.15;98266.00;6143415;23;20769;-83
2021/08/23 07:00:15;;;;;;;12.53;10.63;;;17.00;91.40;;;16.28;87.56;98246.63;6174183;23;20407;-84
2021/08/23 07:03:10;;;;;;;11.57;10.47;;;17.20;90.60;;;16.55;86.28;98259.59;6167400;23;20580;-82
2021/08/23 07:06:00;;;;;;;11.97;10.67;;;17.30;90.10;;;16.57;84.98;98262.91;6166546;23;20419;-83
2021/08/23 07:08:54;;;;;;;11.83;10.63;;;17.50;88.10;;;16.45;85.37;98253.97;6169783;23;20732;-84
2021/08/23 07:11:49;;;;;;;15.90;11.27;;;17.50;88.00;;;16.33;86.30;98260.34;6170372;23;20400;-83
2021/08/23 07:14:37;;;;;;;10.73;9.87;;;17.30;88.40;;;16.39;86.61;98251.16;6168437;23;20397;-84
2021/08/23 07:17:32;;;;;;;11.13;10.20;;;17.30;89.20;;;16.33;86.42;98265.81;6174244;23;20460;-83
2021/08/23 07:20:20;;;;;;;12.27;10.73;;;17.20;89.00;;;16.18;87.45;98268.28;6162065;23;20396;-83
2021/08/23 07:23:10;;;;;;;12.00;10.80;;;17.10;89.20;;;16.39;86.38;98269.44;6164438;23;20397;-83
2021/08/23 07:26:06;;;;;;;12.97;11.87;;;17.30;88.90;;;16.00;87.10;98267.41;6163809;23;20431;-84
2021/08/23 07:28:58;;;;;;;12.30;10.40;;;17.00;88.80;;;15.98;87.46;98278.56;6165205;23;20393;-83
2021/08/23 07:31:49;;;;;;;13.37;12.17;;;16.90;89.70;;;15.82;88.28;98260.25;6167549;23;20400;-86
2021/08/23 07:34:39;;;;;;;12.13;10.83;;;16.90;90.20;;;15.99;88.32;98276.63;6163836;23;20400;-85
2021/08/23 07:37:26;;;;;;;13.45;12.35;;;16.90;90.30;;;15.88;88.79;98280.22;6173483;23;20416;-83
2021/08/23 07:40:16;;;;;;;13.27;12.07;;;16.80;90.70;;;15.88;89.12;98274.78;6168555;23;20173;-81
2021/08/23 07:43:06;;;;;;;12.90;11.60;;;16.80;90.70;;;15.82;88.53;98287.47;6166056;23;20443;-85
2021/08/23 07:45:53;;;;;;;13.57;12.20;;;16.80;90.40;;;15.91;87.92;98279.78;6160872;23;20448;-77
2021/08/23 07:48:42;;;;;;;14.17;12.97;;;16.80;90.20;;;15.80;88.02;98268.66;6165750;23;20401;-78
2021/08/23 07:51:30;;;;;;;14.20;12.63;;;16.80;90.00;;;15.94;86.98;98276.56;6158407;23;20420;-80
2021/08/23 07:54:18;;;;;;;13.33;12.03;;;16.90;89.40;;;16.06;86.45;98271.88;6147595;23;20396;-80
2021/08/23 07:57:07;;;;;;;14.00;11.87;;;17.00;89.00;;;15.76;87.52;98283.81;6162541;23;20400;-78
2021/08/23 07:59:56;;;;;;;14.93;13.57;;;16.80;89.20;;;15.92;87.37;98279.53;6156567;23;20432;-79
2021/08/23 08:02:43;;;;;;;12.80;11.80;;;16.80;89.70;;;15.82;86.80;98282.84;6158974;23;20423;-80
2021/08/23 08:05:37;;;;;;;12.07;11.07;;;16.80;88.90;;;15.86;86.54;98294.94;6166515;23;20479;-80
2021/08/23 08:08:25;;;;;;;13.47;11.37;;;16.80;88.40;;;15.84;86.70;98293.50;6167670;23;20389;-80
2021/08/23 08:11:12;;;;;;;14.63;13.33;;;16.80;88.80;;;15.79;87.35;98299.69;6156066;23;20424;-78
2021/08/23 08:13:59;;;;;;;13.93;12.73;;;16.70;89.20;;;15.78;86.95;98287.13;6166920;23;20389;-79
2021/08/23 08:16:48;;;;;;;13.50;12.20;;;16.70;89.00;;;15.96;87.42;98298.94;6153491;23;20498;-79
2021/08/23 08:19:36;;;;;;;13.30;12.10;;;16.80;89.70;;;16.23;85.40;98287.44;6155658;23;20479;-79
2021/08/23 08:22:24;;;;;;;13.97;12.57;;;17.10;88.80;;;16.24;84.98;98294.53;6167138;23;20467;-78
2021/08/23 08:25:12;;;;;;;13.43;12.23;;;17.10;87.80;;;15.74;85.25;98236.94;6161410;23;20852;-78
2021/08/23 08:28:01;;;;;;;14.63;13.33;;;17.10;87.30;;;16.24;84.91;98287.19;6157817;23;20451;-78
2021/08/23 08:30:49;;;;;;;14.20;13.00;;;17.20;87.60;;;16.13;85.65;98279.91;6165975;23;20494;-79
2021/08/23 08:33:37;;;;;;;14.40;12.97;;;17.10;87.60;;;15.99;86.33;98298.44;6158023;23;20771;-78
2021/08/23 08:36:25;;;;;;;15.03;13.83;;;17.00;87.60;;;15.84;86.17;98269.81;6154533;23;20491;-78
2021/08/23 08:39:13;;;;;;;13.97;12.73;;;16.90;88.10;;;16.10;86.20;98294.84;6167113;23;20392;-78
2021/08/23 08:42:01;;;;;;;14.60;13.30;;;16.90;88.00;;;16.54;84.43;98286.06;6169118;23;20491;-80
2021/08/23 08:44:48;;;;;;;14.93;13.63;;;17.20;87.60;;;16.81;81.96;98282.63;6157265;23;20396;-80
2021/08/23 08:47:41;;;;;;;15.40;13.80;;;17.50;85.60;;;16.84;82.14;98290.34;6165269;23;20439;-84
2021/08/23 08:50:33;;;;;;;15.23;13.83;;;17.70;84.80;;;16.96;79.79;98287.50;6164094;23;20428;-83
2021/08/23 08:53:21;;;;;;;14.97;13.67;;;17.90;83.10;;;17.24;79.50;98296.66;6169612;23;20427;-83
2021/08/23 08:56:09;;;;;;;14.93;13.53;;;18.10;82.90;;;17.17;79.49;98285.09;6166854;23;20465;-84
2021/08/23 08:58:58;;;;;;;14.30;13.00;;;18.10;82.30;;;16.84;80.96;98294.97;6173111;23;20534;-84
2021/08/23 09:01:50;;;;;;;15.23;13.77;;;17.90;82.30;;;16.62;81.45;98300.34;6173433;23;20424;-85
2021/08/23 09:04:41;;;;;;;15.53;14.03;;;17.60;83.00;;;16.61;81.95;98298.69;6184343;23;20483;-83
2021/08/23 09:07:39;;;;;;;17.70;14.67;;;17.50;83.60;;;16.67;82.17;98300.41;6175379;23;20403;-84
2021/08/23 09:10:27;;;;;;;20.50;14.70;;;17.60;84.00;;;16.91;81.45;98301.09;6178995;23;20480;-84
2021/08/23 09:13:22;;;;;;;15.80;14.27;;;17.70;83.80;;;17.26;79.85;98297.22;6171958;23;20461;-83
2021/08/23 09:16:10;;;;;;;15.57;14.07;;;18.00;82.90;;;17.33;80.06;98298.94;6166492;23;20719;-84
2021/08/23 09:18:59;;;;;;;15.23;13.77;;;18.20;83.00;;;17.53;78.69;98303.84;6161913;23;20400;-84
2021/08/23 09:21:48;;;;;;;14.63;13.30;;;18.40;81.90;;;17.86;77.85;98301.22;6159612;23;20427;-78
2021/08/23 09:24:54;;;;;;;14.47;13.17;;;18.50;81.60;;;17.81;77.41;98300.06;6159452;23;20407;-83
2021/08/23 09:27:41;;;;;;;14.80;12.40;;;18.70;80.50;;;18.06;76.59;98295.19;6167467;23;20447;-82
2021/08/23 09:30:30;;;;;;;14.07;12.77;;;18.90;80.10;;;18.05;76.11;98283.41;6165878;23;20435;-82
2021/08/23 09:33:23;;;;;;;12.80;11.60;;;19.00;79.90;;;17.97;75.69;98303.81;6167374;23;20869;-83
2021/08/23 09:36:11;;;;;;;14.70;13.30;;;19.00;78.30;;;17.64;76.84;98300.16;6174969;23;20731;-79
2021/08/23 09:39:07;;;;;;;13.70;12.50;;;18.70;78.40;;;17.69;77.01;98308.41;6172730;23;20903;-83
2021/08/23 09:42:13;;;;;;;12.60;11.50;;;18.60;78.80;;;17.42;78.61;98297.44;6168513;23;20412;-84
2021/08/23 09:45:02;;;;;;;13.60;12.33;;;18.40;79.90;;;17.41;79.24;98295.78;6167410;23;20424;-82
2021/08/23 09:48:00;;;;;;;13.13;12.03;;;18.40;80.40;;;17.45;79.39;98296.91;6170582;23;20399;-83
2021/08/23 09:50:50;;;;;;;13.93;12.63;;;18.40;80.60;;;17.20;79.85;98284.56;6173074;23;20440;-82
2021/08/23 09:53:49;;;;;;;13.33;12.13;;;18.40;80.80;;;17.17;80.96;98304.19;6189617;23;20404;-85
2021/08/23 09:56:45;;;;;;;13.13;11.93;;;18.10;81.60;;;17.34;79.85;98300.59;6163364;23;20401;-81
2021/08/23 09:59:35;;;;;;;12.33;11.23;;;18.20;81.50;;;17.72;77.39;98289.84;6166817;23;20697;-80
2021/08/23 10:02:24;;;;;;;12.67;11.57;;;18.50;80.30;;;17.75;77.54;98303.03;6166298;23;20396;-80
2021/08/23 10:05:14;;;;;;;12.27;11.23;;;18.60;79.50;;;17.55;78.58;98291.59;6164076;23;20405;-78
2021/08/23 10:08:04;;;;;;;12.43;11.30;;;18.50;80.00;;;17.65;78.33;98300.97;6157300;23;20403;-78
2021/08/23 10:10:52;;;;;;;13.13;11.87;;;18.50;80.00;;;17.86;77.33;98285.63;6159986;23;20492;-78
2021/08/23 10:13:40;;;;;;;13.10;12.00;;;18.70;79.30;;;18.08;76.00;98298.47;6171575;23;20447;-78
2021/08/23 10:16:32;;;;;;;13.03;11.73;;;18.90;78.60;;;18.18;75.31;98290.38;6159268;23;20419;-78
2021/08/23 10:19:23;;;;;;;12.23;11.20;;;18.90;78.00;;;18.32;74.63;98290.78;6159739;23;20901;-78
2021/08/23 10:22:13;;;;;;;11.73;10.63;;;19.20;77.50;;;18.33;75.21;98295.16;6160356;23;20416;-79
2021/08/23 10:25:07;;;;;;;12.53;11.43;;;19.20;77.50;;;18.54;73.90;98306.28;6162466;23;21099;-79
2021/08/23 10:28:09;;;;;;;11.00;10.00;;;19.30;76.70;;;18.17;73.74;98291.44;6162636;23;20396;-79
2021/08/23 10:31:07;;;;;;;11.10;10.10;;;19.20;75.50;;;18.31;73.63;98288.28;6157898;23;21296;-79
2021/08/23 10:33:56;;;;;;;11.03;9.90;;;19.10;75.50;;;18.51;72.30;98284.91;6159288;23;20396;-79
2021/08/23 10:36:47;;;;;;;10.77;9.77;;;19.20;74.80;;;18.57;71.95;98283.84;6159921;23;20401;-79
2021/08/23 10:39:37;;;;;;;9.70;8.90;;;19.40;74.10;;;18.82;70.19;98275.03;6159349;23;20483;-79
2021/08/23 10:42:36;;;;;;;9.57;8.77;;;19.60;72.90;;;18.93;70.30;98269.59;6161504;23;20425;-79
2021/08/23 10:45:25;;;;;;;9.03;8.10;;;19.70;73.20;;;19.66;67.76;98270.84;6161337;23;20886;-79
2021/08/23 10:48:15;;;;;;;8.40;7.60;;;20.30;71.80;;;19.89;64.07;98268.69;6160396;23;20392;-79
2021/08/23 10:51:07;;;;;;;7.77;7.17;;;20.60;69.30;;;19.93;64.36;98264.31;6160106;23;20463;-79
2021/08/23 10:53:55;;;;;;;8.07;7.27;;;20.70;68.00;;;19.74;64.71;98256.59;6157032;23;20437;-77
2021/08/23 10:56:42;;;;;;;8.33;7.63;;;20.60;67.90;;;20.14;63.79;98253.41;6156497;23;20478;-78
2021/08/23 10:59:40;;;;;;;8.20;7.60;;;20.80;67.40;;;20.09;63.94;98252.31;6166551;23;20419;-79
2021/08/23 11:02:34;;;;;;;8.37;7.57;;;20.90;67.10;;;20.33;63.75;98257.25;6167253;23;20472;-78
2021/08/23 11:05:23;;;;;;;8.00;7.30;;;20.90;67.40;;;20.54;63.70;98249.00;6170094;23;20435;-80
2021/08/23 11:08:18;;;;;;;9.00;8.40;;;21.20;67.20;;;21.02;61.80;98245.97;6162940;23;21062;-77
2021/08/23 11:11:13;;;;;;;8.00;7.20;;;21.70;66.80;;;20.72;62.98;98249.56;6162570;23;20427;-78
2021/08/23 11:14:00;;;;;;;10.00;9.00;;;21.60;66.40;;;20.20;63.91;98258.63;6155594;23;20495;-78
2021/08/23 11:16:55;;;;;;;9.10;8.30;;;21.10;66.20;;;19.99;64.67;98246.81;6155675;23;20400;-78
2021/08/23 11:19:42;;;;;;;8.73;8.10;;;20.80;66.50;;;19.96;65.57;98239.94;6153235;23;20861;-78
2021/08/23 11:22:30;;;;;;;10.10;8.33;;;20.80;67.30;;;20.21;64.29;98242.97;6152229;23;20457;-77
2021/08/23 11:25:29;;;;;;;9.23;8.00;;;20.90;66.70;;;20.52;64.13;98234.75;6164772;23;20479;-81
2021/08/23 11:28:21;;;;;;;9.27;8.57;;;21.30;67.00;;;20.50;63.81;98225.97;6169470;23;20408;-82
2021/08/23 11:31:08;;;;;;;9.57;8.87;;;21.40;66.60;;;20.82;63.59;98224.84;6165581;23;20434;-82
2021/08/23 11:34:06;;;;;;;9.90;8.90;;;21.60;66.80;;;20.61;63.25;98235.84;6174452;23;20460;-80
2021/08/23 11:36:53;;;;;;;9.97;8.37;;;21.50;65.70;;;19.98;66.30;98242.41;6163767;23;20412;-80
2021/08/23 11:39:41;;;;;;;8.87;8.17;;;21.00;67.30;;;20.05;66.28;98234.75;6162668;23;20402;-81
2021/08/23 11:42:31;;;;;;;9.27;8.50;;;20.80;67.60;;;19.61;68.06;98236.00;6147115;23;20470;-81